Time;durP1;ratioP1;P1;durP2;ratioP2;P2;SDS_P1;SDS_P2;PMS_P1;PMS_P2;Temp;Humidity;BMP_temperature;BMP_pressure;BME280_temperature;BME280_humidity;BME280_pressure;Samples;Min_cycle;Max_cycle;Signal;HPM_P1;HPM_P2
2023/03/05 00:02:35;;;;;;;;;;;16.80;62.00;;;;;;10355964;28;93092;-69
2023/03/05 00:07:37;;;;;;;;;;;16.80;62.00;;;;;;10372894;28;93638;-68
2023/03/05 00:12:39;;;;;;;;;;;16.80;61.80;;;;;;10355745;28;93431;-68
2023/03/05 00:17:40;;;;;;;;;;;16.80;61.90;;;;;;10373633;28;94434;-68
2023/03/05 00:22:42;;;;;;;;;;;16.70;61.80;;;;;;10372948;28;93231;-68
2023/03/05 00:27:44;;;;;;;;;;;16.70;61.80;;;;;;10373642;28;94523;-68
2023/03/05 00:32:46;;;;;;;;;;;16.70;62.70;;;;;;10355572;28;93706;-68
2023/03/05 00:37:47;;;;;;;;;;;16.70;61.70;;;;;;10372571;28;94197;-68
2023/03/05 00:42:49;;;;;;;;;;;16.70;61.60;;;;;;10372708;28;93519;-68
2023/03/05 00:47:51;;;;;;;;;;;16.60;61.40;;;;;;10369147;28;95456;-68
2023/03/05 00:52:53;;;;;;;;;;;16.60;61.30;;;;;;10353639;28;94291;-68
2023/03/05 00:57:55;;;;;;;;;;;16.60;61.50;;;;;;10371684;28;94053;-68
2023/03/05 01:02:56;;;;;;;;;;;16.60;61.40;;;;;;10368099;28;93555;-68
2023/03/05 01:07:58;;;;;;;;;;;16.60;61.30;;;;;;10372325;28;92622;-68
2023/03/05 01:13:00;;;;;;;;;;;16.50;61.40;;;;;;10371925;28;94573;-68
2023/03/05 01:18:02;;;;;;;;;;;16.50;61.40;;;;;;10370734;28;94410;-68
2023/03/05 01:23:04;;;;;;;;;;;16.50;61.40;;;;;;10372122;28;93748;-69
2023/03/05 01:28:05;;;;;;;;;;;16.50;61.60;;;;;;10353388;28;93366;-68
2023/03/05 01:33:07;;;;;;;;;;;16.50;61.40;;;;;;10353982;28;94595;-68
2023/03/05 01:38:09;;;;;;;;;;;16.40;61.20;;;;;;10368070;28;96980;-68
2023/03/05 01:43:11;;;;;;;;;;;16.40;61.30;;;;;;10371352;28;94571;-68
2023/03/05 01:48:13;;;;;;;;;;;16.40;61.40;;;;;;10351808;28;94505;-68
2023/03/05 01:53:15;;;;;;;;;;;16.40;61.40;;;;;;10353000;28;94382;-68
2023/03/05 01:58:17;;;;;;;;;;;16.40;61.30;;;;;;10353202;28;93742;-69
2023/03/05 02:03:19;;;;;;;;;;;16.40;61.30;;;;;;10369808;28;94503;-68
2023/03/05 02:08:21;;;;;;;;;;;16.30;61.20;;;;;;10370099;28;93407;-68
2023/03/05 02:13:24;;;;;;;;;;;16.30;61.20;;;;;;10369806;28;93328;-68
2023/03/05 02:18:26;;;;;;;;;;;16.30;61.20;;;;;;10368790;28;94279;-69
2023/03/05 02:23:31;;;;;;;;;;;16.30;61.20;;;;;;10368176;28;93292;-68
2023/03/05 02:28:41;;;;;;;;;;;16.30;61.20;;;;;;10366737;28;95342;-68
2023/03/05 02:33:43;;;;;;;;;;;16.30;61.10;;;;;;10350398;28;93821;-68
2023/03/05 02:38:45;;;;;;;;;;;16.30;61.00;;;;;;10369206;28;93532;-69
2023/03/05 02:43:46;;;;;;;;;;;16.30;61.00;;;;;;10369012;28;94459;-68
2023/03/05 02:48:48;;;;;;;;;;;16.30;61.00;;;;;;10367863;28;94662;-68
2023/03/05 02:53:50;;;;;;;;;;;16.30;60.90;;;;;;10369006;28;93491;-68
2023/03/05 02:58:52;;;;;;;;;;;16.30;60.80;;;;;;10368054;28;93191;-68
2023/03/05 03:03:54;;;;;;;;;;;16.30;60.90;;;;;;10366901;28;93694;-68
2023/03/05 03:08:56;;;;;;;;;;;16.30;60.80;;;;;;10369442;28;94081;-68
2023/03/05 03:13:58;;;;;;;;;;;16.20;60.70;;;;;;10367639;28;94619;-69
2023/03/05 03:18:59;;;;;;;;;;;16.20;60.60;;;;;;10353845;28;96045;-68
2023/03/05 03:24:01;;;;;;;;;;;16.30;60.60;;;;;;10375628;28;93232;-68
2023/03/05 03:29:03;;;;;;;;;;;16.30;60.70;;;;;;10374905;28;93467;-68
2023/03/05 03:34:04;;;;;;;;;;;16.20;60.50;;;;;;10374176;28;92849;-68
2023/03/05 03:39:08;;;;;;;;;;;16.20;60.60;;;;;;10375144;28;94488;-68
2023/03/05 03:44:10;;;;;;;;;;;16.20;60.50;;;;;;10375165;28;93435;-68
2023/03/05 03:49:23;;;;;;;;;;;16.20;60.60;;;;;;10356355;28;93201;-68
2023/03/05 03:54:24;;;;;;;;;;;16.10;60.60;;;;;;10375032;28;93702;-68
2023/03/05 03:59:26;;;;;;;;;;;16.10;60.70;;;;;;10373652;28;93918;-68
2023/03/05 04:04:29;;;;;;;;;;;16.20;60.80;;;;;;10373290;28;94263;-68
2023/03/05 04:09:31;;;;;;;;;;;16.10;60.70;;;;;;10371763;28;97443;-68
2023/03/05 04:14:32;;;;;;;;;;;16.10;60.70;;;;;;10372912;28;92590;-69
2023/03/05 04:19:34;;;;;;;;;;;16.10;60.70;;;;;;10374483;28;94559;-69
2023/03/05 04:24:37;;;;;;;;;;;16.10;60.60;;;;;;10373752;28;94835;-69
2023/03/05 04:29:39;;;;;;;;;;;16.10;60.70;;;;;;10372701;28;96572;-69
2023/03/05 04:34:40;;;;;;;;;;;16.10;60.50;;;;;;10355099;28;94569;-69
2023/03/05 04:39:42;;;;;;;;;;;16.00;60.60;;;;;;10354429;28;93352;-68
2023/03/05 04:44:48;;;;;;;;;;;16.00;60.60;;;;;;10355850;28;93007;-69
2023/03/05 06:07:54;;;;;;;;;;;16.50;59.90;;;;;;10246325;28;95818;-70
2023/03/05 06:12:56;;;;;;;;;;;16.60;59.50;;;;;;10246202;28;93953;-71
2023/03/05 06:17:58;;;;;;;;;;;16.70;59.30;;;;;;10246616;28;94033;-71
2023/03/05 06:23:00;;;;;;;;;;;16.70;59.10;;;;;;10247243;28;93561;-70
2023/03/05 06:28:01;;;;;;;;;;;16.70;59.10;;;;;;10247952;28;94494;-71
2023/03/05 06:33:03;;;;;;;;;;;16.70;59.00;;;;;;10244831;28;93513;-70
2023/03/05 06:38:08;;;;;;;;;;;16.70;59.20;;;;;;10248913;28;93403;-70
2023/03/05 06:43:09;;;;;;;;;;;16.70;59.10;;;;;;10248395;28;92217;-70
2023/03/05 06:48:11;;;;;;;;;;;16.80;59.00;;;;;;10248697;28;94626;-72
2023/03/05 06:53:13;;;;;;;;;;;17.00;58.90;;;;;;10253772;28;95067;-71
2023/03/05 06:58:15;;;;;;;;;;;17.00;58.70;;;;;;10256598;28;96095;-71
2023/03/05 07:03:16;;;;;;;;;;;17.00;58.50;;;;;;10261093;28;94451;-71
2023/03/05 07:08:18;;;;;;;;;;;17.00;58.60;;;;;;10318279;28;93581;-71
2023/03/05 07:13:20;;;;;;;;;;;16.90;58.50;;;;;;10336851;28;93388;-71
2023/03/05 07:18:21;;;;;;;;;;;16.90;58.60;;;;;;10336057;28;94544;-71
2023/03/05 07:23:23;;;;;;;;;;;16.90;58.60;;;;;;10316499;28;93280;-72
2023/03/05 07:28:25;;;;;;;;;;;16.80;58.60;;;;;;10335186;28;94278;-71
2023/03/05 07:33:27;;;;;;;;;;;16.80;58.80;;;;;;10335423;28;93839;-71
2023/03/05 07:38:29;;;;;;;;;;;16.70;58.80;;;;;;10335133;28;94513;-73
2023/03/05 07:43:31;;;;;;;;;;;16.70;59.00;;;;;;10334196;28;93885;-72
2023/03/05 07:48:33;;;;;;;;;;;16.70;59.10;;;;;;10330504;28;96548;-73
2023/03/05 07:53:34;;;;;;;;;;;16.70;59.10;;;;;;10332579;28;93636;-72
2023/03/05 07:58:36;;;;;;;;;;;16.70;59.10;;;;;;10333545;28;94739;-72
2023/03/05 08:03:38;;;;;;;;;;;16.70;60.30;;;;;;10332169;28;93214;-73
2023/03/05 08:08:40;;;;;;;;;;;16.70;61.20;;;;;;10311353;28;94025;-72
2023/03/05 08:13:43;;;;;;;;;;;16.80;60.80;;;;;;10333182;28;93567;-71
2023/03/05 08:18:45;;;;;;;;;;;16.80;60.80;;;;;;10332872;28;93820;-71
2023/03/05 08:23:47;;;;;;;;;;;16.90;61.70;;;;;;10333970;28;92541;-71
2023/03/05 08:28:49;;;;;;;;;;;16.90;61.40;;;;;;10332768;28;93310;-69
2023/03/05 08:33:51;;;;;;;;;;;17.00;61.20;;;;;;10315062;28;94213;-71
2023/03/05 08:38:54;;;;;;;;;;;17.00;60.90;;;;;;10329695;28;95832;-70
2023/03/05 08:43:56;;;;;;;;;;;17.10;60.60;;;;;;10333212;28;94265;-70
2023/03/05 08:48:58;;;;;;;;;;;17.10;60.40;;;;;;10331368;28;93366;-70
2023/03/05 08:54:00;;;;;;;;;;;17.10;60.40;;;;;;10332811;28;94433;-70
2023/03/05 08:59:03;;;;;;;;;;;17.00;60.40;;;;;;10331160;28;93247;-70
2023/03/05 09:04:04;;;;;;;;;;;17.00;60.30;;;;;;10330900;28;93700;-71
2023/03/05 09:09:07;;;;;;;;;;;17.00;60.30;;;;;;10331203;28;93224;-70
2023/03/05 09:14:09;;;;;;;;;;;16.90;60.30;;;;;;10312900;28;92515;-70
2023/03/05 09:19:11;;;;;;;;;;;16.90;60.30;;;;;;10330021;28;93147;-70
2023/03/05 09:24:13;;;;;;;;;;;16.80;60.30;;;;;;10330907;28;94629;-70
2023/03/05 09:29:15;;;;;;;;;;;16.80;60.30;;;;;;10328802;28;95295;-69
2023/03/05 09:34:17;;;;;;;;;;;16.80;60.20;;;;;;10331113;28;93691;-70
2023/03/05 09:39:18;;;;;;;;;;;16.80;60.00;;;;;;10329828;28;94058;-70
2023/03/05 09:44:23;;;;;;;;;;;16.80;60.90;;;;;;10313975;28;93322;-70
2023/03/05 09:49:40;;;;;;;;;;;16.90;60.00;;;;;;10330535;28;93457;-69
2023/03/05 09:54:43;;;;;;;;;;;16.80;59.90;;;;;;10330899;28;92549;-70
2023/03/05 09:59:45;;;;;;;;;;;16.80;59.80;;;;;;10328983;28;93309;-69
2023/03/05 10:04:55;;;;;;;;;;;16.90;59.90;;;;;;10330152;28;93625;-70
2023/03/05 10:09:59;;;;;;;;;;;17.00;59.60;;;;;;10312272;28;93639;-70
2023/03/05 10:15:02;;;;;;;;;;;17.00;59.50;;;;;;10330158;28;93825;-70
2023/03/05 10:20:22;;;;;;;;;;;17.00;59.50;;;;;;10326899;28;96911;-71
2023/03/05 10:25:39;;;;;;;;;;;17.10;59.50;;;;;;10328569;28;93525;-70
2023/03/05 10:31:03;;;;;;;;;;;17.00;60.30;;;;;;10328577;28;94468;-71
2023/03/05 10:36:05;;;;;;;;;;;17.00;59.40;;;;;;10329465;28;94843;-70
2023/03/05 10:41:11;;;;;;;;;;;17.00;59.40;;;;;;10328696;28;94505;-71
2023/03/05 10:46:15;;;;;;;;;;;17.00;59.30;;;;;;10329634;28;93448;-70
2023/03/05 10:51:18;;;;;;;;;;;17.00;59.30;;;;;;10310630;28;93837;-70
2023/03/05 10:56:20;;;;;;;;;;;17.00;59.30;;;;;;10329808;28;92703;-70
2023/03/05 11:01:26;;;;;;;;;;;16.90;59.30;;;;;;10328370;28;94673;-71
2023/03/05 11:06:30;;;;;;;;;;;16.90;59.10;;;;;;10309984;28;93452;-70
2023/03/05 11:11:32;;;;;;;;;;;16.90;59.10;;;;;;10325695;28;96227;-70
2023/03/05 11:16:45;;;;;;;;;;;16.90;59.20;;;;;;10328041;28;93256;-70
2023/03/05 11:22:04;;;;;;;;;;;16.90;59.40;;;;;;10327964;28;93260;-68
2023/03/05 11:27:30;;;;;;;;;;;17.10;61.00;;;;;;10328619;28;94432;-71
2023/03/05 11:32:31;;;;;;;;;;;17.40;60.00;;;;;;10328108;28;93126;-69
2023/03/05 11:37:33;;;;;;;;;;;17.80;59.30;;;;;;10332440;28;94521;-68
2023/03/05 11:42:36;;;;;;;;;;;18.00;58.90;;;;;;10334393;28;93485;-70
2023/03/05 11:47:38;;;;;;;;;;;18.10;58.40;;;;;;10336475;28;92504;-68
2023/03/05 11:52:48;;;;;;;;;;;18.00;59.70;;;;;;10333994;28;93846;-68
2023/03/05 11:57:55;;;;;;;;;;;18.00;58.90;;;;;;10333637;28;92528;-69
2023/03/05 12:02:59;;;;;;;;;;;17.90;58.90;;;;;;10331841;28;95832;-69
2023/03/05 12:08:01;;;;;;;;;;;18.00;59.10;;;;;;10290560;28;93562;-70
2023/03/05 12:13:05;;;;;;;;;;;18.10;59.00;;;;;;10292791;28;93459;-69
2023/03/05 12:18:26;;;;;;;;;;;18.20;58.70;;;;;;10289832;28;94259;-69
2023/03/05 12:23:28;;;;;;;;;;;18.30;58.60;;;;;;10289857;28;94447;-68
2023/03/05 12:28:30;;;;;;;;;;;18.20;58.60;;;;;;10288925;28;93521;-68
2023/03/05 12:33:39;;;;;;;;;;;18.20;60.00;;;;;;10291643;28;93936;-70
2023/03/05 12:38:40;;;;;;;;;;;18.10;59.60;;;;;;10291992;28;93700;-70
2023/03/05 12:43:42;;;;;;;;;;;18.00;59.50;;;;;;10289882;28;93497;-71
2023/03/05 12:48:44;;;;;;;;;;;18.00;60.40;;;;;;10289913;28;94874;-72
2023/03/05 12:53:48;;;;;;;;;;;17.90;60.60;;;;;;10277386;28;96132;-71
2023/03/05 12:58:52;;;;;;;;;;;17.80;60.70;;;;;;10282831;28;93534;-71
2023/03/05 13:03:55;;;;;;;;;;;17.80;60.70;;;;;;10286681;28;94470;-70
2023/03/05 13:08:59;;;;;;;;;;;17.70;60.90;;;;;;10290479;28;93547;-70
2023/03/05 13:14:01;;;;;;;;;;;17.60;60.90;;;;;;10330781;28;94041;-69
2023/03/05 13:19:03;;;;;;;;;;;17.60;61.00;;;;;;10329607;28;93473;-69
2023/03/05 13:24:13;;;;;;;;;;;17.50;61.00;;;;;;10330257;28;94326;-70
2023/03/05 13:29:15;;;;;;;;;;;17.50;61.30;;;;;;10330654;28;92541;-70
2023/03/05 13:34:19;;;;;;;;;;;17.40;61.40;;;;;;10331061;28;94981;-69
2023/03/05 13:39:29;;;;;;;;;;;17.40;61.50;;;;;;10329901;28;93514;-70
2023/03/05 13:44:31;;;;;;;;;;;17.50;61.50;;;;;;10327261;28;96694;-70
2023/03/05 13:49:33;;;;;;;;;;;17.70;61.50;;;;;;10330342;28;94236;-70
2023/03/05 13:54:35;;;;;;;;;;;17.90;61.40;;;;;;10330339;28;93124;-70
2023/03/05 13:59:38;;;;;;;;;;;18.10;61.00;;;;;;10329432;28;92995;-70
2023/03/05 14:04:44;;;;;;;;;;;18.20;60.70;;;;;;10311487;28;93477;-70
2023/03/05 14:09:50;;;;;;;;;;;18.40;60.60;;;;;;10329329;28;93652;-70
2023/03/05 14:14:52;;;;;;;;;;;18.50;60.50;;;;;;10329293;28;93232;-70
2023/03/05 14:20:06;;;;;;;;;;;18.50;60.40;;;;;;10329718;28;92483;-70
2023/03/05 14:25:25;;;;;;;;;;;18.60;60.30;;;;;;10329086;28;95778;-70
2023/03/05 14:30:29;;;;;;;;;;;18.60;60.10;;;;;;10328166;28;93491;-70
2023/03/05 14:35:31;;;;;;;;;;;18.70;60.10;;;;;;10326381;28;96720;-70
2023/03/05 14:40:34;;;;;;;;;;;18.60;60.10;;;;;;10311060;28;93655;-70
2023/03/05 14:45:38;;;;;;;;;;;18.60;60.20;;;;;;10328812;28;93965;-70
2023/03/05 14:50:44;;;;;;;;;;;18.60;60.30;;;;;;10309555;28;94425;-70
2023/03/05 14:55:49;;;;;;;;;;;18.60;60.30;;;;;;10328119;28;93227;-70
2023/03/05 15:00:52;;;;;;;;;;;18.50;60.40;;;;;;10328788;28;94881;-70
2023/03/05 15:05:55;;;;;;;;;;;18.50;61.90;;;;;;10309498;28;93190;-70
2023/03/05 15:10:58;;;;;;;;;;;18.50;61.30;;;;;;10314505;28;92762;-69
2023/03/05 15:15:59;;;;;;;;;;;18.60;61.20;;;;;;10337463;28;94140;-70
2023/03/05 15:21:01;;;;;;;;;;;18.60;61.10;;;;;;10334481;28;93577;-70
2023/03/05 15:26:05;;;;;;;;;;;18.70;60.90;;;;;;10332846;28;95921;-70
2023/03/05 15:31:07;;;;;;;;;;;18.70;60.80;;;;;;10335466;28;94067;-68
2023/03/05 15:36:09;;;;;;;;;;;18.70;61.00;;;;;;10334724;28;94103;-69
2023/03/05 15:41:11;;;;;;;;;;;18.60;60.80;;;;;;10334415;28;93272;-67
2023/03/05 15:46:13;;;;;;;;;;;18.60;60.70;;;;;;10315396;28;94287;-68
2023/03/05 15:51:16;;;;;;;;;;;18.70;58.70;;;;;;10333863;28;94668;-68
2023/03/05 15:56:18;;;;;;;;;;;18.70;58.20;;;;;;10333660;28;93028;-68
2023/03/05 16:01:21;;;;;;;;;;;18.80;57.50;;;;;;10334978;28;92844;-68
2023/03/05 16:06:23;;;;;;;;;;;18.80;57.00;;;;;;10315036;28;94989;-69
2023/03/05 16:11:25;;;;;;;;;;;18.80;56.90;;;;;;10334055;28;94523;-68
2023/03/05 16:16:27;;;;;;;;;;;18.70;56.90;;;;;;10330932;28;95906;-68
2023/03/05 16:21:29;;;;;;;;;;;18.70;56.90;;;;;;10331912;28;92886;-68
2023/03/05 16:26:33;;;;;;;;;;;18.70;57.00;;;;;;10333773;28;94588;-68
2023/03/05 16:31:36;;;;;;;;;;;18.70;57.10;;;;;;10314396;28;94700;-68
2023/03/05 16:36:40;;;;;;;;;;;18.80;57.10;;;;;;10332098;28;92751;-68
2023/03/05 16:41:41;;;;;;;;;;;18.80;57.00;;;;;;10331622;28;94191;-70
2023/03/05 16:46:47;;;;;;;;;;;18.80;57.10;;;;;;10314020;28;93245;-67
2023/03/05 16:51:49;;;;;;;;;;;18.80;57.60;;;;;;10332597;28;93126;-69
2023/03/05 16:56:52;;;;;;;;;;;18.90;58.60;;;;;;10313586;28;93571;-68
2023/03/05 17:01:53;;;;;;;;;;;18.90;61.70;;;;;;10331447;28;93921;-66
2023/03/05 17:06:55;;;;;;;;;;;19.00;60.90;;;;;;10328166;28;95525;-68
2023/03/05 17:11:57;;;;;;;;;;;19.10;60.90;;;;;;10331174;28;93483;-69
2023/03/05 17:17:00;;;;;;;;;;;19.20;60.40;;;;;;10331472;28;94288;-67
2023/03/05 17:22:02;;;;;;;;;;;19.30;59.10;;;;;;10330911;28;95195;-68
2023/03/05 17:27:04;;;;;;;;;;;19.40;59.00;;;;;;10313083;28;93826;-66
2023/03/05 17:32:06;;;;;;;;;;;19.50;58.50;;;;;;10312870;28;94449;-67
2023/03/05 17:37:08;;;;;;;;;;;19.50;58.70;;;;;;10331254;28;93485;-67
2023/03/05 17:42:09;;;;;;;;;;;19.50;60.60;;;;;;10330172;28;92504;-69
2023/03/05 17:47:12;;;;;;;;;;;19.80;58.50;;;;;;10330608;28;94321;-67
2023/03/05 17:52:13;;;;;;;;;;;20.10;58.20;;;;;;10331714;28;93921;-67
2023/03/05 17:57:15;;;;;;;;;;;20.00;58.10;;;;;;10327997;28;96854;-67
2023/03/05 18:02:17;;;;;;;;;;;19.90;58.70;;;;;;10328490;28;93611;-66
2023/03/05 18:07:19;;;;;;;;;;;19.80;58.90;;;;;;10312357;28;94553;-68
2023/03/05 18:12:21;;;;;;;;;;;19.60;59.50;;;;;;10329461;28;94427;-67
2023/03/05 18:17:23;;;;;;;;;;;19.40;59.90;;;;;;10329282;28;93275;-70
2023/03/05 18:22:24;;;;;;;;;;;19.30;60.20;;;;;;10329807;28;93650;-66
2023/03/05 18:27:26;;;;;;;;;;;19.20;60.50;;;;;;10329067;28;93664;-65
2023/03/05 18:32:28;;;;;;;;;;;19.10;60.70;;;;;;10328939;28;94067;-65
2023/03/05 18:37:30;;;;;;;;;;;19.10;60.70;;;;;;10329230;28;92834;-65
2023/03/05 18:42:31;;;;;;;;;;;19.00;60.80;;;;;;10328581;28;94545;-67
2023/03/05 18:47:33;;;;;;;;;;;18.90;60.80;;;;;;10325843;28;96589;-69
2023/03/05 18:52:35;;;;;;;;;;;18.90;61.80;;;;;;10329216;28;92926;-67
2023/03/05 18:57:37;;;;;;;;;;;18.90;62.20;;;;;;10328119;28;93355;-67
2023/03/05 19:02:39;;;;;;;;;;;18.90;62.30;;;;;;10311054;28;93518;-66
2023/03/05 19:07:41;;;;;;;;;;;18.80;62.30;;;;;;10326492;28;93294;-68
2023/03/05 19:12:54;;;;;;;;;;;18.80;62.70;;;;;;10327419;28;93651;-68
2023/03/05 19:17:56;;;;;;;;;;;18.80;63.30;;;;;;10326622;28;93474;-67
2023/03/05 19:22:57;;;;;;;;;;;18.80;64.00;;;;;;10327946;28;92739;-68
2023/03/05 19:27:59;;;;;;;;;;;18.80;64.50;;;;;;10327108;28;93406;-68
2023/03/05 19:33:02;;;;;;;;;;;18.80;64.60;;;;;;10326631;28;93748;-68
2023/03/05 19:38:04;;;;;;;;;;;18.80;65.60;;;;;;10306881;28;96110;-68
2023/03/05 19:43:06;;;;;;;;;;;18.80;65.80;;;;;;10327233;28;93442;-67
2023/03/05 19:48:08;;;;;;;;;;;18.80;66.20;;;;;;10326353;28;93500;-68
2023/03/05 19:53:10;;;;;;;;;;;18.80;66.70;;;;;;10325264;28;93385;-67
2023/03/05 19:58:11;;;;;;;;;;;18.80;66.80;;;;;;10330329;28;94447;-67
2023/03/05 20:03:13;;;;;;;;;;;18.70;67.20;;;;;;10332581;28;93477;-67
2023/03/05 20:08:15;;;;;;;;;;;18.70;67.20;;;;;;10332527;28;93521;-67
2023/03/05 20:13:16;;;;;;;;;;;18.70;67.50;;;;;;10334163;28;93748;-67
2023/03/05 20:18:18;;;;;;;;;;;18.70;67.70;;;;;;10332151;28;92746;-67
2023/03/05 20:23:20;;;;;;;;;;;18.70;68.10;;;;;;10332442;28;93654;-67
2023/03/05 20:28:24;;;;;;;;;;;18.70;68.30;;;;;;10330857;28;95956;-67
2023/03/05 20:33:27;;;;;;;;;;;18.70;68.40;;;;;;10331763;28;93635;-66
2023/03/05 20:38:29;;;;;;;;;;;18.70;68.90;;;;;;10333784;28;93408;-67
2023/03/05 20:43:39;;;;;;;;;;;18.60;69.20;;;;;;10333317;28;93393;-66
2023/03/05 20:48:41;;;;;;;;;;;18.60;69.40;;;;;;10331364;28;94436;-67
2023/03/05 20:53:43;;;;;;;;;;;18.60;69.60;;;;;;10332005;28;94473;-67
2023/03/05 20:58:45;;;;;;;;;;;18.60;70.00;;;;;;10331693;28;93768;-67
2023/03/05 21:03:48;;;;;;;;;;;18.60;70.10;;;;;;10332110;28;94108;-66
2023/03/05 21:08:50;;;;;;;;;;;18.60;70.30;;;;;;10329849;28;93512;-66
2023/03/05 21:13:51;;;;;;;;;;;18.60;70.50;;;;;;10312647;28;94647;-66
2023/03/05 21:18:55;;;;;;;;;;;18.60;70.70;;;;;;10327455;28;95716;-66
2023/03/05 21:23:57;;;;;;;;;;;18.60;70.30;;;;;;10330920;28;93964;-67
2023/03/05 21:28:59;;;;;;;;;;;18.50;68.90;;;;;;10331029;28;94543;-67
2023/03/05 21:34:01;;;;;;;;;;;18.40;68.90;;;;;;10330278;28;92575;-67
2023/03/05 21:39:03;;;;;;;;;;;18.40;68.70;;;;;;10329576;28;92976;-67
2023/03/05 21:44:05;;;;;;;;;;;18.40;68.80;;;;;;10330347;28;93834;-67
2023/03/05 21:49:06;;;;;;;;;;;18.30;68.20;;;;;;10330274;28;94841;-67
2023/03/05 21:54:08;;;;;;;;;;;18.30;68.20;;;;;;10313145;28;92577;-67
2023/03/05 21:59:10;;;;;;;;;;;18.30;69.20;;;;;;10330489;28;94512;-67
2023/03/05 22:04:12;;;;;;;;;;;18.30;68.20;;;;;;10329274;28;93254;-67
2023/03/05 22:09:14;;;;;;;;;;;18.30;68.10;;;;;;10327037;28;95900;-66
2023/03/05 22:14:16;;;;;;;;;;;18.30;68.00;;;;;;10311308;28;94032;-67
2023/03/05 22:19:19;;;;;;;;;;;18.20;67.80;;;;;;10328131;28;93477;-66
2023/03/05 22:24:23;;;;;;;;;;;18.20;67.80;;;;;;10311633;28;93411;-67
2023/03/05 22:29:26;;;;;;;;;;;18.20;67.50;;;;;;10328246;28;93088;-66
2023/03/05 22:34:29;;;;;;;;;;;18.20;67.40;;;;;;10327807;28;114049;-68
2023/03/05 22:39:31;;;;;;;;;;;18.20;66.90;;;;;;10328947;28;93402;-68
2023/03/05 22:44:33;;;;;;;;;;;18.10;66.50;;;;;;10329986;28;92029;-68
2023/03/05 22:49:34;;;;;;;;;;;18.10;66.20;;;;;;10311810;28;93556;-68
2023/03/05 22:54:36;;;;;;;;;;;18.00;66.20;;;;;;10311706;28;93470;-68
2023/03/05 22:59:38;;;;;;;;;;;17.90;66.00;;;;;;10325424;28;97169;-69
2023/03/05 23:04:48;;;;;;;;;;;17.90;65.80;;;;;;10328389;28;94566;-69
2023/03/05 23:09:54;;;;;;;;;;;17.80;65.60;;;;;;10327442;28;93590;-69
2023/03/05 23:14:59;;;;;;;;;;;17.80;65.50;;;;;;10327205;28;92885;-69
2023/03/05 23:20:03;;;;;;;;;;;17.70;65.30;;;;;;10326968;28;93500;-68
2023/03/05 23:25:05;;;;;;;;;;;17.70;65.30;;;;;;10327160;28;94769;-69
2023/03/05 23:30:15;;;;;;;;;;;17.70;65.20;;;;;;10327892;28;93494;-68
2023/03/05 23:35:20;;;;;;;;;;;17.60;65.20;;;;;;10336697;28;92733;-68
2023/03/05 23:40:24;;;;;;;;;;;17.60;64.90;;;;;;10335181;28;94275;-69
2023/03/05 23:45:26;;;;;;;;;;;17.50;64.70;;;;;;10335689;28;95213;-68
2023/03/05 23:50:32;;;;;;;;;;;17.50;64.70;;;;;;10331244;28;95650;-68
2023/03/05 23:55:35;;;;;;;;;;;17.50;64.60;;;;;;10334206;28;93529;-68
